| time (UTC) | temp F | wind direction | speed knots | gust knots | rain 1hr in | rain 24hr in | rain mn in | humidity % | barometer mb |
| 20260508050211 | 59 | 337 | 0.0 | 0.9 | 0.00 | 0.00 | 0.00 | 66 | 1011.0 |
| 20260508045706 | 59 | 271 | 0.9 | 1.7 | 0.00 | 0.00 | 0.00 | 65 | 1011.0 |
| 20260508045205 | 59 | 307 | 0.9 | 0.9 | 0.00 | 0.00 | 0.00 | 65 | 1011.0 |
| 20260508044702 | 60 | 353 | 0.0 | 0.9 | 0.00 | 0.00 | 0.00 | 65 | 1010.9 |
| 20260508044158 | 60 | 265 | 0.0 | 0.0 | 0.00 | 0.00 | 0.00 | 64 | 1010.9 |
| 20260508043654 | 60 | 319 | 0.9 | 1.7 | 0.00 | 0.00 | 0.00 | 64 | 1011.2 |
| 20260508043152 | 60 | 311 | 0.9 | 1.7 | 0.00 | 0.00 | 0.00 | 63 | 1011.2 |
| 20260508042648 | 60 | 267 | 2.6 | 4.3 | 0.00 | 0.00 | 0.00 | 63 | 1011.0 |
| 20260508042146 | 60 | 239 | 0.9 | 0.9 | 0.00 | 0.00 | 0.00 | 64 | 1011.1 |
| 20260508041642 | 60 | 253 | 0.0 | 0.9 | 0.00 | 0.00 | 0.00 | 64 | 1011.4 |
| 20260508041139 | 60 | 109 | 0.0 | 0.9 | 0.00 | 0.00 | 0.00 | 63 | 1011.3 |
| 20260508040635 | 60 | 356 | 0.9 | 0.9 | 0.00 | 0.00 | 0.00 | 63 | 1011.1 |
| 20260508040133 | 60 | 284 | 1.7 | 2.6 | 0.00 | 0.00 | 0.00 | 63 | 1011.1 |
| 20260508035630 | 60 | 237 | 0.0 | 0.9 | 0.00 | 0.00 | 0.00 | 64 | 1011.1 |
| 20260508035127 | 60 | 278 | 0.0 | 0.9 | 0.00 | 0.00 | 0.00 | 64 | 1011.0 |
| 20260508034624 | 60 | 278 | 0.9 | 0.9 | 0.00 | 0.00 | 0.00 | 64 | 1011.1 |
| 20260508034121 | 60 | 211 | 0.0 | 0.0 | 0.00 | 0.00 | 0.00 | 64 | 1011.0 |
| 20260508033618 | 60 | 261 | 1.7 | 2.6 | 0.00 | 0.00 | 0.00 | 65 | 1011.2 |
| 20260508033117 | 60 | 318 | 0.9 | 1.7 | 0.00 | 0.00 | 0.00 | 64 | 1011.0 |
| 20260508032613 | 60 | 221 | 0.0 | 0.9 | 0.00 | 0.00 | 0.00 | 64 | 1011.1 |
| 20260508032110 | 60 | 283 | 0.0 | 0.0 | 0.00 | 0.00 | 0.00 | 64 | 1011.0 |
| 20260508031608 | 61 | 259 | 0.0 | 0.9 | 0.00 | 0.00 | 0.00 | 63 | 1010.9 |
| 20260508031103 | 60 | 212 | 0.9 | 0.9 | 0.00 | 0.00 | 0.00 | 63 | 1011.0 |
| 20260508030600 | 60 | 241 | 2.6 | 5.2 | 0.00 | 0.00 | 0.00 | 63 | 1010.9 |
| 20260508030058 | 60 | 219 | 0.0 | 0.0 | 0.00 | 0.00 | 0.00 | 62 | 1011.0 |
| 20260508025554 | 61 | 197 | 0.9 | 0.9 | 0.00 | 0.00 | 0.00 | 64 | 1010.8 |
| 20260508025051 | 61 | 267 | 0.0 | 0.0 | 0.00 | 0.00 | 0.00 | 62 | 1010.6 |
| 20260508024547 | 61 | 242 | 0.0 | 0.9 | 0.00 | 0.00 | 0.00 | 61 | 1011.0 |
| 20260508024044 | 61 | 293 | 0.0 | 0.0 | 0.00 | 0.00 | 0.00 | 60 | 1010.4 |
| 20260508023540 | 61 | 270 | 0.0 | 0.9 | 0.00 | 0.00 | 0.00 | 60 | 1010.6 |
| 20260508023038 | 62 | 230 | 0.0 | 0.0 | 0.00 | 0.00 | 0.00 | 59 | 1010.5 |
| 20260508022534 | 62 | 271 | 0.9 | 0.9 | 0.00 | 0.00 | 0.00 | 59 | 1010.3 |
| 20260508022031 | 62 | 338 | 0.0 | 0.9 | 0.00 | 0.00 | 0.00 | 58 | 1010.3 |
| 20260508021527 | 62 | 258 | 0.0 | 0.0 | 0.00 | 0.00 | 0.00 | 57 | 1010.3 |
| 20260508021022 | 62 | 51 | 0.0 | 0.0 | 0.00 | 0.00 | 0.00 | 57 | 1010.2 |
| 20260508020521 | 62 | 256 | 0.0 | 0.0 | 0.00 | 0.00 | 0.00 | 57 | 1010.1 |
| 20260508020018 | 62 | 323 | 0.9 | 0.9 | 0.00 | 0.00 | 0.00 | 56 | 1010.3 |
| 20260508015515 | 63 | 233 | 0.0 | 0.0 | 0.00 | 0.00 | 0.00 | 56 | 1010.1 |
| 20260508015012 | 63 | 220 | 0.0 | 0.0 | 0.00 | 0.00 | 0.00 | 55 | 1010.0 |
| 20260508014508 | 64 | 229 | 0.0 | 0.0 | 0.00 | 0.00 | 0.00 | 54 | 1010.1 |
| 20260508014005 | 64 | 300 | 0.9 | 0.9 | 0.00 | 0.00 | 0.00 | 53 | 1009.9 |
| 20260508013501 | 64 | 294 | 0.9 | 1.7 | 0.00 | 0.00 | 0.00 | 53 | 1009.8 |
| 20260508012958 | 64 | 77 | 0.9 | 1.7 | 0.00 | 0.00 | 0.00 | 54 | 1009.9 |
| 20260508012455 | 64 | 342 | 0.0 | 0.0 | 0.00 | 0.00 | 0.00 | 55 | 1009.9 |
| 20260508011953 | 64 | 259 | 0.0 | 0.0 | 0.00 | 0.00 | 0.00 | 54 | 1010.1 |
| 20260508011451 | 65 | 248 | 0.0 | 0.0 | 0.00 | 0.00 | 0.00 | 54 | 1009.7 |
| 20260508010948 | 65 | 259 | 0.0 | 0.0 | 0.00 | 0.00 | 0.00 | 54 | 1009.9 |
| 20260508010445 | 65 | 195 | 0.0 | 0.9 | 0.00 | 0.00 | 0.00 | 53 | 1010.0 |
| 20260508005942 | 66 | 227 | 0.9 | 1.7 | 0.00 | 0.00 | 0.00 | 53 | 1009.7 |
| 20260508005438 | 66 | 231 | 0.9 | 0.9 | 0.00 | 0.00 | 0.00 | 54 | 1009.7 |
| 20260508004935 | 66 | 217 | 0.0 | 0.0 | 0.00 | 0.00 | 0.00 | 52 | 1009.7 |
| 20260508004431 | 67 | 266 | 0.0 | 0.9 | 0.00 | 0.00 | 0.00 | 52 | 1009.8 |
| 20260508003928 | 67 | 234 | 0.0 | 0.0 | 0.00 | 0.00 | 0.00 | 52 | 1009.9 |
| 20260508003425 | 67 | 235 | 0.0 | 0.9 | 0.00 | 0.00 | 0.00 | 51 | 1009.8 |
| 20260508002922 | 67 | 185 | 1.7 | 2.6 | 0.00 | 0.00 | 0.00 | 51 | 1009.9 |
| 20260508002419 | 68 | 230 | 0.0 | 0.0 | 0.00 | 0.00 | 0.00 | 52 | 1009.8 |
| 20260508001914 | 68 | 194 | 0.0 | 0.0 | 0.00 | 0.00 | 0.00 | 51 | 1009.9 |
| 20260508001405 | 68 | 238 | 0.0 | 0.0 | 0.00 | 0.00 | 0.00 | 49 | 1009.7 |
| 20260508000902 | 68 | 299 | 1.7 | 1.7 | 0.00 | 0.00 | 0.00 | 48 | 1009.9 |
| 20260508000358 | 69 | 272 | 0.0 | 0.0 | 0.00 | 0.00 | 0.00 | 49 | 1010.0 |
| 20260507235854 | 69 | 208 | 0.9 | 1.7 | 0.00 | 0.00 | 0.00 | 48 | 1010.0 |
| 20260507235352 | 68 | 241 | 0.9 | 1.7 | 0.00 | 0.00 | 0.00 | 47 | 1010.0 |
| 20260507234849 | 69 | 182 | 0.0 | 0.0 | 0.00 | 0.00 | 0.00 | 47 | 1009.9 |
| 20260507234346 | 69 | 26 | 0.9 | 0.9 | 0.00 | 0.00 | 0.00 | 46 | 1010.0 |
| 20260507233842 | 69 | 250 | 2.6 | 5.2 | 0.00 | 0.00 | 0.00 | 46 | 1010.2 |
| 20260507233340 | 69 | 21 | 0.0 | 0.0 | 0.00 | 0.00 | 0.00 | 47 | 1010.2 |
| 20260507232838 | 69 | 150 | 0.9 | 0.9 | 0.00 | 0.00 | 0.00 | 45 | 1010.3 |
| 20260507232334 | 69 | 249 | 0.0 | 0.0 | 0.00 | 0.00 | 0.00 | 45 | 1010.4 |
| 20260507231831 | 69 | 280 | 2.6 | 2.6 | 0.00 | 0.00 | 0.00 | 44 | 1010.3 |
| 20260507231322 | 70 | 204 | 0.9 | 2.6 | 0.00 | 0.00 | 0.00 | 42 | 1010.5 |
| 20260507230818 | 70 | 264 | 0.9 | 0.9 | 0.00 | 0.00 | 0.00 | 45 | 1010.5 |
| 20260507230316 | 70 | 292 | 0.0 | 0.0 | 0.00 | 0.00 | 0.00 | 44 | 1010.4 |
| 20260507225816 | 71 | 329 | 2.6 | 5.2 | 0.00 | 0.00 | 0.00 | 44 | 1010.6 |
| 20260507225312 | 71 | 206 | 3.5 | 6.1 | 0.00 | 0.00 | 0.00 | 42 | 1010.8 |
| 20260507224808 | 71 | 244 | 0.9 | 0.9 | 0.00 | 0.00 | 0.00 | 43 | 1010.5 |
| 20260507224305 | 71 | 219 | 0.0 | 0.9 | 0.00 | 0.00 | 0.00 | 44 | 1010.6 |
| 20260507223801 | 72 | 214 | 0.0 | 0.9 | 0.00 | 0.00 | 0.00 | 44 | 1010.5 |
| 20260507223257 | 71 | 209 | 0.9 | 0.9 | 0.00 | 0.00 | 0.00 | 44 | 1010.9 |
| 20260507222754 | 71 | 220 | 0.0 | 0.9 | 0.00 | 0.00 | 0.00 | 45 | 1010.6 |
| 20260507222250 | 71 | 265 | 0.9 | 1.7 | 0.00 | 0.00 | 0.00 | 45 | 1011.1 |
| 20260507221748 | 71 | 282 | 0.9 | 1.7 | 0.00 | 0.00 | 0.00 | 43 | 1010.9 |
| 20260507221244 | 71 | 156 | 1.7 | 2.6 | 0.00 | 0.00 | 0.00 | 43 | 1010.6 |
| 20260507220740 | 71 | 267 | 0.9 | 1.7 | 0.00 | 0.00 | 0.00 | 46 | 1010.8 |
| 20260507220239 | 71 | 27 | 2.6 | 4.3 | 0.00 | 0.00 | 0.00 | 42 | 1010.8 |
| 20260507215734 | 71 | 122 | 3.5 | 6.1 | 0.00 | 0.00 | 0.00 | 44 | 1010.8 |
| 20260507215232 | 71 | 319 | 1.7 | 1.7 | 0.00 | 0.00 | 0.00 | 43 | 1010.9 |
| 20260507214729 | 72 | 102 | 0.9 | 1.7 | 0.00 | 0.00 | 0.00 | 42 | 1010.9 |
| 20260507214227 | 71 | 282 | 3.5 | 5.2 | 0.00 | 0.00 | 0.00 | 42 | 1011.2 |
| 20260507213722 | 71 | 334 | 0.9 | 1.7 | 0.00 | 0.00 | 0.00 | 45 | 1011.0 |
| 20260507213219 | 71 | 221 | 2.6 | 2.6 | 0.00 | 0.00 | 0.00 | 44 | 1011.0 |
| 20260507212715 | 71 | 216 | 0.0 | 1.7 | 0.00 | 0.00 | 0.00 | 46 | 1011.1 |
| 20260507212212 | 71 | 272 | 1.7 | 1.7 | 0.00 | 0.00 | 0.00 | 45 | 1011.1 |
| 20260507211709 | 71 | 289 | 1.7 | 1.7 | 0.00 | 0.00 | 0.00 | 46 | 1011.2 |
| 20260507211204 | 71 | 216 | 0.9 | 0.9 | 0.00 | 0.00 | 0.00 | 46 | 1011.2 |
| 20260507210702 | 71 | 230 | 1.7 | 2.6 | 0.00 | 0.00 | 0.00 | 45 | 1011.5 |
| 20260507210159 | 71 | 211 | 3.5 | 5.2 | 0.00 | 0.00 | 0.00 | 44 | 1011.4 |
| 20260507205655 | 71 | 272 | 2.6 | 7.0 | 0.00 | 0.00 | 0.00 | 45 | 1011.6 |
| 20260507205152 | 70 | 243 | 2.6 | 2.6 | 0.00 | 0.00 | 0.00 | 47 | 1011.7 |
| 20260507204648 | 69 | 209 | 1.7 | 2.6 | 0.00 | 0.00 | 0.00 | 48 | 1011.7 |
| 20260507204146 | 69 | 190 | 4.3 | 7.0 | 0.00 | 0.00 | 0.00 | 46 | 1011.9 |
| 20260507203644 | 70 | 235 | 0.9 | 0.9 | 0.00 | 0.00 | 0.00 | 49 | 1012.0 |
| 20260507203141 | 70 | 7 | 3.5 | 7.0 | 0.00 | 0.00 | 0.00 | 48 | 1012.2 |
| 20260507202636 | 71 | 166 | 2.6 | 4.3 | 0.00 | 0.00 | 0.00 | 49 | 1012.1 |
| 20260507202133 | 71 | 234 | 0.9 | 1.7 | 0.00 | 0.00 | 0.00 | 48 | 1012.1 |
| 20260507201628 | 70 | 216 | 2.6 | 2.6 | 0.00 | 0.00 | 0.00 | 49 | 1012.3 |
| 20260507201125 | 70 | 43 | 2.6 | 2.6 | 0.00 | 0.00 | 0.00 | 50 | 1012.4 |
| 20260507200621 | 69 | 168 | 1.7 | 1.7 | 0.00 | 0.00 | 0.00 | 48 | 1012.6 |
| 20260507200117 | 69 | 231 | 1.7 | 2.6 | 0.00 | 0.00 | 0.00 | 50 | 1012.5 |
| 20260507195614 | 68 | 175 | 3.5 | 4.3 | 0.00 | 0.00 | 0.00 | 49 | 1012.5 |
| 20260507195112 | 69 | 318 | 2.6 | 5.2 | 0.00 | 0.00 | 0.00 | 48 | 1012.7 |
| 20260507194608 | 69 | 231 | 1.7 | 2.6 | 0.00 | 0.00 | 0.00 | 50 | 1012.7 |
| 20260507194103 | 68 | 280 | 3.5 | 5.2 | 0.00 | 0.00 | 0.00 | 49 | 1012.8 |
| 20260507193601 | 69 | 234 | 3.5 | 5.2 | 0.00 | 0.00 | 0.00 | 50 | 1012.8 |
| 20260507193058 | 69 | 332 | 2.6 | 4.3 | 0.00 | 0.00 | 0.00 | 48 | 1013.0 |
| 20260507192554 | 68 | 355 | 3.5 | 5.2 | 0.00 | 0.00 | 0.00 | 49 | 1013.0 |
| 20260507192051 | 68 | 152 | 3.5 | 8.7 | 0.00 | 0.00 | 0.00 | 50 | 1013.2 |
| 20260507191546 | 68 | 151 | 1.7 | 1.7 | 0.00 | 0.00 | 0.00 | 51 | 1013.3 |
| 20260507191044 | 69 | 275 | 2.6 | 4.3 | 0.00 | 0.00 | 0.00 | 50 | 1013.3 |
| 20260507190541 | 68 | 231 | 1.7 | 2.6 | 0.00 | 0.00 | 0.00 | 51 | 1013.2 |
| 20260507190040 | 68 | 318 | 3.5 | 4.3 | 0.00 | 0.00 | 0.00 | 49 | 1013.3 |
| 20260507185538 | 68 | 219 | 0.9 | 0.9 | 0.00 | 0.00 | 0.00 | 51 | 1013.4 |
| 20260507185034 | 68 | 174 | 2.6 | 5.2 | 0.00 | 0.00 | 0.00 | 52 | 1013.3 |
| 20260507184532 | 67 | 224 | 1.7 | 1.7 | 0.00 | 0.00 | 0.00 | 53 | 1013.4 |
| 20260507184030 | 67 | 202 | 3.5 | 5.2 | 0.00 | 0.00 | 0.00 | 53 | 1013.4 |
| 20260507183525 | 67 | 217 | 2.6 | 5.2 | 0.00 | 0.00 | 0.00 | 52 | 1013.4 |
| 20260507183023 | 67 | 267 | 5.2 | 11.3 | 0.00 | 0.00 | 0.00 | 53 | 1013.8 |
| 20260507182519 | 66 | 271 | 0.0 | 0.0 | 0.00 | 0.00 | 0.00 | 54 | 1013.8 |
| 20260507182015 | 66 | 127 | 1.7 | 2.6 | 0.00 | 0.00 | 0.00 | 53 | 1013.9 |
| 20260507181512 | 66 | 282 | 3.5 | 5.2 | 0.00 | 0.00 | 0.00 | 53 | 1013.9 |
| 20260507181008 | 66 | 274 | 3.5 | 5.2 | 0.00 | 0.00 | 0.00 | 55 | 1014.1 |
| 20260507180504 | 66 | 115 | 1.7 | 2.6 | 0.00 | 0.00 | 0.00 | 54 | 1014.0 |
| 20260507180001 | 67 | 261 | 3.5 | 5.2 | 0.00 | 0.00 | 0.00 | 51 | 1014.1 |
| 20260507175458 | 66 | 138 | 2.6 | 4.3 | 0.00 | 0.00 | 0.00 | 53 | 1014.2 |
| 20260507174955 | 67 | 199 | 5.2 | 7.0 | 0.00 | 0.00 | 0.00 | 52 | 1014.5 |
| 20260507174452 | 66 | 297 | 3.5 | 5.2 | 0.00 | 0.00 | 0.00 | 52 | 1014.3 |
| 20260507173950 | 66 | 284 | 1.7 | 2.6 | 0.00 | 0.00 | 0.00 | 54 | 1014.6 |
| 20260507173447 | 66 | 262 | 1.7 | 4.3 | 0.00 | 0.00 | 0.00 | 53 | 1014.6 |
| 20260507172943 | 64 | 340 | 5.2 | 7.8 | 0.00 | 0.00 | 0.00 | 54 | 1014.5 |
| 20260507172440 | 66 | 130 | 1.7 | 4.3 | 0.00 | 0.00 | 0.00 | 52 | 1014.8 |
| 20260507171937 | 65 | 297 | 2.6 | 4.3 | 0.00 | 0.00 | 0.00 | 54 | 1014.9 |
| 20260507171432 | 67 | 257 | 0.9 | 2.6 | 0.00 | 0.00 | 0.00 | 55 | 1014.9 |
| 20260507170930 | 65 | 253 | 0.9 | 1.7 | 0.00 | 0.00 | 0.00 | 55 | 1014.9 |
| 20260507170426 | 64 | 230 | 0.9 | 2.6 | 0.00 | 0.00 | 0.00 | 55 | 1014.9 |
| 20260507165923 | 64 | 270 | 3.5 | 5.2 | 0.00 | 0.00 | 0.00 | 56 | 1015.1 |
| 20260507165419 | 64 | 179 | 2.6 | 7.0 | 0.00 | 0.00 | 0.00 | 53 | 1015.1 |
| 20260507164914 | 64 | 285 | 3.5 | 5.2 | 0.00 | 0.00 | 0.00 | 54 | 1015.3 |
| 20260507164412 | 64 | 326 | 1.7 | 2.6 | 0.00 | 0.00 | 0.00 | 53 | 1015.1 |
| 20260507163909 | 65 | 305 | 5.2 | 7.0 | 0.00 | 0.00 | 0.00 | 53 | 1015.4 |
| 20260507163407 | 64 | 204 | 1.7 | 4.3 | 0.00 | 0.00 | 0.00 | 55 | 1015.3 |
| 20260507162903 | 64 | 317 | 6.1 | 9.6 | 0.00 | 0.00 | 0.00 | 53 | 1015.5 |
| 20260507162358 | 64 | 244 | 3.5 | 7.8 | 0.00 | 0.00 | 0.00 | 56 | 1015.4 |
| 20260507161856 | 65 | 235 | 2.6 | 7.0 | 0.00 | 0.00 | 0.00 | 55 | 1015.9 |
| 20260507161352 | 64 | 184 | 0.9 | 0.9 | 0.00 | 0.00 | 0.00 | 58 | 1015.6 |
| 20260507160849 | 64 | 240 | 1.7 | 2.6 | 0.00 | 0.00 | 0.00 | 58 | 1015.7 |
| 20260507160344 | 64 | 236 | 6.1 | 8.7 | 0.00 | 0.00 | 0.00 | 58 | 1015.8 |
| 20260507155841 | 64 | 199 | 0.9 | 0.9 | 0.00 | 0.00 | 0.00 | 58 | 1015.7 |
| 20260507155336 | 63 | 279 | 2.6 | 2.6 | 0.00 | 0.00 | 0.00 | 55 | 1015.8 |
| 20260507154833 | 64 | 153 | 0.9 | 1.7 | 0.00 | 0.00 | 0.00 | 56 | 1015.7 |
| 20260507154331 | 62 | 79 | 0.9 | 0.9 | 0.00 | 0.00 | 0.00 | 60 | 1015.7 |
| 20260507153828 | 62 | 119 | 0.9 | 0.9 | 0.00 | 0.00 | 0.00 | 60 | 1015.9 |
| 20260507153324 | 62 | 235 | 3.5 | 6.1 | 0.00 | 0.00 | 0.00 | 58 | 1015.9 |
| 20260507152821 | 62 | 352 | 2.6 | 2.6 | 0.00 | 0.00 | 0.00 | 59 | 1015.8 |
| 20260507152317 | 62 | 299 | 2.6 | 2.6 | 0.00 | 0.00 | 0.00 | 59 | 1016.0 |
| 20260507151813 | 61 | 94 | 0.0 | 0.9 | 0.00 | 0.00 | 0.00 | 61 | 1016.1 |
| 20260507151309 | 61 | 259 | 4.3 | 7.0 | 0.00 | 0.00 | 0.00 | 60 | 1016.0 |
| 20260507150807 | 61 | 277 | 2.6 | 6.1 | 0.00 | 0.00 | 0.00 | 62 | 1016.1 |
| 20260507150303 | 60 | 288 | 4.3 | 7.0 | 0.00 | 0.00 | 0.00 | 62 | 1016.2 |
| 20260507145759 | 59 | 171 | 1.7 | 1.7 | 0.00 | 0.00 | 0.00 | 64 | 1016.3 |
| 20260507145256 | 60 | 186 | 1.7 | 2.6 | 0.00 | 0.00 | 0.00 | 63 | 1016.4 |
| 20260507144753 | 59 | 271 | 1.7 | 1.7 | 0.00 | 0.00 | 0.00 | 64 | 1016.4 |
| 20260507144250 | 59 | 150 | 0.9 | 1.7 | 0.00 | 0.00 | 0.00 | 65 | 1016.4 |
| 20260507143746 | 58 | 276 | 2.6 | 5.2 | 0.00 | 0.00 | 0.00 | 66 | 1016.4 |
| 20260507143244 | 57 | 276 | 0.0 | 1.7 | 0.00 | 0.00 | 0.00 | 66 | 1016.5 |
| 20260507142740 | 57 | 278 | 0.0 | 0.9 | 0.00 | 0.00 | 0.00 | 67 | 1016.4 |
| 20260507142237 | 57 | 342 | 1.7 | 2.6 | 0.00 | 0.00 | 0.00 | 66 | 1016.5 |
| 20260507141733 | 56 | 318 | 0.9 | 0.9 | 0.00 | 0.00 | 0.00 | 69 | 1016.8 |
| 20260507141230 | 56 | 254 | 0.9 | 0.9 | 0.00 | 0.00 | 0.00 | 70 | 1016.5 |
| 20260507140726 | 55 | 205 | 0.0 | 0.9 | 0.00 | 0.00 | 0.00 | 71 | 1016.5 |
| 20260507140224 | 54 | 208 | 0.9 | 1.7 | 0.00 | 0.00 | 0.00 | 72 | 1016.7 |
| 20260507135721 | 53 | 216 | 0.9 | 1.7 | 0.00 | 0.00 | 0.00 | 74 | 1016.8 |
| 20260507135218 | 52 | 272 | 2.6 | 4.3 | 0.00 | 0.00 | 0.00 | 75 | 1016.9 |
| 20260507134714 | 52 | 243 | 1.7 | 4.3 | 0.00 | 0.00 | 0.00 | 76 | 1016.8 |
| 20260507134211 | 51 | 189 | 3.5 | 7.0 | 0.00 | 0.00 | 0.00 | 78 | 1016.5 |
| 20260507133707 | 51 | 213 | 0.9 | 1.7 | 0.00 | 0.00 | 0.00 | 81 | 1016.8 |
| 20260507133204 | 50 | 270 | 1.7 | 4.3 | 0.00 | 0.00 | 0.00 | 82 | 1016.5 |
| 20260507132701 | 50 | 255 | 0.9 | 1.7 | 0.00 | 0.00 | 0.00 | 84 | 1016.7 |
| 20260507132157 | 49 | 203 | 0.0 | 0.9 | 0.00 | 0.00 | 0.00 | 84 | 1016.3 |
| 20260507131654 | 49 | 286 | 0.9 | 1.7 | 0.00 | 0.00 | 0.00 | 84 | 1016.8 |
| 20260507131152 | 48 | 227 | 0.9 | 1.7 | 0.00 | 0.00 | 0.00 | 85 | 1016.8 |
| 20260507130648 | 48 | 217 | 0.0 | 0.9 | 0.00 | 0.00 | 0.00 | 85 | 1017.0 |
| 20260507130146 | 47 | 257 | 0.9 | 0.9 | 0.00 | 0.00 | 0.00 | 87 | 1016.8 |
| 20260507125645 | 47 | 232 | 0.9 | 0.9 | 0.00 | 0.00 | 0.00 | 88 | 1017.0 |
| 20260507125142 | 47 | 224 | 0.9 | 0.9 | 0.00 | 0.00 | 0.00 | 88 | 1016.9 |
| 20260507124638 | 46 | 240 | 0.0 | 0.0 | 0.00 | 0.00 | 0.00 | 88 | 1016.5 |
| 20260507124136 | 46 | 165 | 0.0 | 0.0 | 0.00 | 0.00 | 0.00 | 88 | 1016.9 |
| 20260507123634 | 45 | 283 | 0.0 | 0.9 | 0.00 | 0.00 | 0.00 | 89 | 1017.0 |
| 20260507123131 | 45 | 212 | 0.0 | 0.0 | 0.00 | 0.00 | 0.00 | 89 | 1016.9 |
| 20260507122626 | 45 | 223 | 0.0 | 0.0 | 0.00 | 0.00 | 0.00 | 89 | 1016.8 |
| 20260507122122 | 44 | 225 | 0.0 | 0.9 | 0.00 | 0.00 | 0.00 | 90 | 1016.9 |
| 20260507121618 | 44 | 224 | 0.0 | 0.9 | 0.00 | 0.00 | 0.00 | 90 | 1017.0 |
| 20260507121114 | 44 | 208 | 0.9 | 0.9 | 0.00 | 0.00 | 0.00 | 91 | 1017.0 |
| 20260507120610 | 43 | 213 | 0.0 | 0.0 | 0.00 | 0.00 | 0.00 | 91 | 1016.7 |
| 20260507120107 | 43 | 227 | 0.0 | 0.0 | 0.00 | 0.00 | 0.00 | 92 | 1017.0 |
| 20260507115603 | 42 | 311 | 1.7 | 1.7 | 0.00 | 0.00 | 0.00 | 92 | 1016.8 |
| 20260507115059 | 42 | 222 | 0.0 | 0.0 | 0.00 | 0.00 | 0.00 | 92 | 1016.9 |
| 20260507114555 | 42 | 229 | 0.0 | 0.0 | 0.00 | 0.00 | 0.00 | 93 | 1016.8 |
| 20260507114052 | 42 | 228 | 0.0 | 0.0 | 0.00 | 0.00 | 0.00 | 92 | 1016.9 |
| 20260507113549 | 42 | 206 | 0.0 | 0.0 | 0.00 | 0.00 | 0.00 | 92 | 1016.9 |
| 20260507113047 | 42 | 220 | 0.0 | 0.0 | 0.00 | 0.00 | 0.00 | 92 | 1016.9 |
| 20260507112544 | 42 | 247 | 0.0 | 0.0 | 0.00 | 0.00 | 0.00 | 92 | 1016.8 |
| 20260507112041 | 42 | 223 | 0.0 | 0.0 | 0.00 | 0.00 | 0.00 | 93 | 1016.7 |
| 20260507111538 | 42 | 225 | 0.0 | 0.0 | 0.00 | 0.00 | 0.00 | 93 | 1016.7 |
| 20260507111035 | 42 | 288 | 0.0 | 0.0 | 0.00 | 0.00 | 0.00 | 93 | 1016.7 |
| 20260507110531 | 41 | 263 | 0.0 | 0.0 | 0.00 | 0.00 | 0.00 | 93 | 1016.7 |
| 20260507110028 | 41 | 286 | 0.0 | 0.0 | 0.00 | 0.00 | 0.00 | 93 | 1016.8 |
| 20260507105525 | 41 | 236 | 0.0 | 0.0 | 0.00 | 0.00 | 0.00 | 93 | 1016.5 |
| 20260507105021 | 42 | 236 | 0.0 | 0.0 | 0.00 | 0.00 | 0.00 | 93 | 1016.8 |
| 20260507104518 | 42 | 236 | 0.0 | 0.0 | 0.00 | 0.00 | 0.00 | 93 | 1016.3 |
| 20260507104015 | 42 | 236 | 0.0 | 0.0 | 0.00 | 0.00 | 0.00 | 93 | 1016.4 |
| 20260507103511 | 42 | 189 | 0.0 | 0.0 | 0.00 | 0.00 | 0.00 | 93 | 1016.4 |
| 20260507103007 | 42 | 189 | 0.0 | 0.0 | 0.00 | 0.00 | 0.00 | 92 | 1016.7 |
| 20260507102504 | 42 | 189 | 0.0 | 0.0 | 0.00 | 0.00 | 0.00 | 92 | 1016.7 |
| 20260507102000 | 42 | 206 | 0.0 | 0.0 | 0.00 | 0.00 | 0.00 | 91 | 1016.5 |
| 20260507101455 | 42 | 201 | 0.0 | 0.0 | 0.00 | 0.00 | 0.00 | 91 | 1016.5 |
| 20260507100952 | 42 | 230 | 0.0 | 0.0 | 0.00 | 0.00 | 0.00 | 90 | 1016.9 |
| 20260507100450 | 43 | 225 | 0.0 | 0.0 | 0.00 | 0.00 | 0.00 | 89 | 1016.9 |
| 20260507095948 | 42 | 216 | 0.0 | 0.0 | 0.00 | 0.00 | 0.00 | 90 | 1016.9 |
| 20260507095445 | 42 | 230 | 0.0 | 0.0 | 0.00 | 0.00 | 0.00 | 90 | 1017.0 |
| 20260507094942 | 42 | 203 | 0.0 | 0.0 | 0.00 | 0.00 | 0.00 | 89 | 1016.7 |
| 20260507094438 | 42 | 240 | 0.0 | 0.0 | 0.00 | 0.00 | 0.00 | 89 | 1016.8 |
| 20260507093935 | 42 | 229 | 0.0 | 0.0 | 0.00 | 0.00 | 0.00 | 89 | 1016.9 |
| 20260507093433 | 42 | 244 | 0.0 | 0.0 | 0.00 | 0.00 | 0.00 | 88 | 1016.7 |
| 20260507092931 | 42 | 262 | 0.0 | 0.0 | 0.00 | 0.00 | 0.00 | 89 | 1017.0 |
| 20260507092427 | 42 | 221 | 0.0 | 0.0 | 0.00 | 0.00 | 0.00 | 88 | 1017.2 |
| 20260507091924 | 42 | 210 | 0.0 | 0.0 | 0.00 | 0.00 | 0.00 | 88 | 1017.0 |
| 20260507091420 | 42 | 224 | 0.0 | 0.0 | 0.00 | 0.00 | 0.00 | 88 | 1017.3 |
| 20260507090916 | 42 | 223 | 0.0 | 0.0 | 0.00 | 0.00 | 0.00 | 88 | 1017.0 |
| 20260507090412 | 42 | 223 | 0.0 | 0.0 | 0.00 | 0.00 | 0.00 | 88 | 1017.2 |
| 20260507085909 | 42 | 212 | 0.0 | 0.0 | 0.00 | 0.00 | 0.00 | 87 | 1017.1 |
| 20260507085406 | 42 | 212 | 0.0 | 0.0 | 0.00 | 0.00 | 0.00 | 87 | 1017.3 |
| 20260507084903 | 42 | 210 | 0.0 | 0.0 | 0.00 | 0.00 | 0.00 | 87 | 1017.1 |
| 20260507084400 | 43 | 211 | 0.0 | 0.0 | 0.00 | 0.00 | 0.00 | 87 | 1017.4 |
| 20260507083857 | 43 | 207 | 0.0 | 0.0 | 0.00 | 0.00 | 0.00 | 86 | 1017.4 |
| 20260507083353 | 43 | 203 | 0.0 | 0.0 | 0.00 | 0.00 | 0.00 | 86 | 1017.2 |
| 20260507082850 | 42 | 222 | 0.0 | 0.9 | 0.00 | 0.00 | 0.00 | 86 | 1017.4 |
| 20260507082345 | 42 | 220 | 0.0 | 0.0 | 0.00 | 0.00 | 0.00 | 86 | 1017.2 |
| 20260507081843 | 42 | 217 | 0.0 | 0.0 | 0.00 | 0.00 | 0.00 | 86 | 1017.4 |
| 20260507081339 | 43 | 217 | 0.0 | 0.0 | 0.00 | 0.00 | 0.00 | 85 | 1017.2 |
| 20260507080836 | 42 | 217 | 0.0 | 0.0 | 0.00 | 0.00 | 0.00 | 84 | 1017.4 |
| 20260507080332 | 42 | 217 | 0.0 | 0.0 | 0.00 | 0.00 | 0.00 | 84 | 1017.4 |
| 20260507075828 | 43 | 217 | 0.0 | 0.0 | 0.00 | 0.00 | 0.00 | 83 | 1017.4 |
| 20260507075324 | 42 | 217 | 0.0 | 0.0 | 0.00 | 0.00 | 0.00 | 83 | 1017.2 |
| 20260507074820 | 43 | 217 | 0.0 | 0.0 | 0.00 | 0.00 | 0.00 | 82 | 1017.4 |
| 20260507074318 | 43 | 217 | 0.0 | 0.0 | 0.00 | 0.00 | 0.00 | 82 | 1017.3 |
| 20260507073815 | 43 | 217 | 0.0 | 0.0 | 0.00 | 0.00 | 0.00 | 82 | 1017.4 |
| 20260507073312 | 43 | 217 | 0.0 | 0.0 | 0.00 | 0.00 | 0.00 | 81 | 1017.4 |
| 20260507072809 | 43 | 217 | 0.0 | 0.0 | 0.00 | 0.00 | 0.00 | 81 | 1017.3 |
| 20260507072308 | 44 | 217 | 0.0 | 0.0 | 0.00 | 0.00 | 0.00 | 80 | 1017.5 |
| 20260507071804 | 44 | 223 | 0.0 | 0.0 | 0.00 | 0.00 | 0.00 | 80 | 1017.6 |
| 20260507071300 | 44 | 223 | 0.0 | 0.0 | 0.00 | 0.00 | 0.00 | 79 | 1017.7 |
| 20260507070756 | 44 | 223 | 0.0 | 0.0 | 0.00 | 0.00 | 0.00 | 78 | 1017.6 |
| 20260507070254 | 45 | 223 | 0.0 | 0.0 | 0.00 | 0.00 | 0.00 | 78 | 1017.7 |
| 20260507065750 | 45 | 223 | 0.0 | 0.0 | 0.00 | 0.00 | 0.00 | 77 | 1017.8 |
| 20260507065247 | 45 | 223 | 0.0 | 0.0 | 0.00 | 0.00 | 0.00 | 76 | 1017.9 |
| 20260507064744 | 46 | 223 | 0.0 | 0.0 | 0.00 | 0.00 | 0.00 | 75 | 1017.7 |
| 20260507064243 | 46 | 215 | 0.0 | 0.0 | 0.00 | 0.00 | 0.00 | 74 | 1017.8 |
| 20260507063740 | 46 | 223 | 0.0 | 0.0 | 0.00 | 0.00 | 0.00 | 72 | 1017.8 |
| 20260507063237 | 47 | 220 | 0.0 | 0.0 | 0.00 | 0.00 | 0.00 | 71 | 1017.8 |
| 20260507062734 | 47 | 234 | 0.0 | 0.0 | 0.00 | 0.00 | 0.00 | 71 | 1018.0 |
| 20260507062231 | 47 | 233 | 0.0 | 0.0 | 0.00 | 0.00 | 0.00 | 69 | 1017.9 |
| 20260507061730 | 47 | 227 | 0.0 | 0.9 | 0.00 | 0.00 | 0.00 | 68 | 1018.0 |
| 20260507061227 | 48 | 233 | 0.0 | 0.0 | 0.00 | 0.00 | 0.00 | 68 | 1018.0 |
| 20260507060725 | 48 | 256 | 0.0 | 0.0 | 0.00 | 0.00 | 0.00 | 68 | 1018.0 |
| 20260507060221 | 48 | 255 | 0.0 | 0.0 | 0.00 | 0.00 | 0.00 | 69 | 1018.2 |
| 20260507055717 | 48 | 230 | 0.0 | 0.9 | 0.00 | 0.00 | 0.00 | 67 | 1018.2 |
| 20260507055213 | 49 | 217 | 0.0 | 0.9 | 0.00 | 0.00 | 0.00 | 67 | 1018.2 |
| 20260507054709 | 49 | 233 | 0.0 | 0.0 | 0.00 | 0.00 | 0.00 | 67 | 1018.4 |
| 20260507054206 | 49 | 236 | 0.0 | 0.0 | 0.00 | 0.00 | 0.00 | 66 | 1018.2 |
| 20260507053704 | 49 | 269 | 0.0 | 0.0 | 0.00 | 0.00 | 0.00 | 65 | 1018.1 |
| 20260507053202 | 49 | 264 | 0.0 | 0.9 | 0.00 | 0.00 | 0.00 | 66 | 1018.1 |
| 20260507052701 | 50 | 227 | 0.0 | 0.0 | 0.00 | 0.00 | 0.00 | 67 | 1018.3 |
| 20260507052156 | 49 | 224 | 0.9 | 0.9 | 0.00 | 0.00 | 0.00 | 65 | 1018.1 |
| 20260507051654 | 49 | 316 | 1.7 | 1.7 | 0.00 | 0.00 | 0.00 | 67 | 1018.3 |
| 20260507051150 | 49 | 228 | 0.0 | 0.0 | 0.00 | 0.00 | 0.00 | 68 | 1018.2 |
| 20260507050647 | 49 | 242 | 0.0 | 0.0 | 0.00 | 0.00 | 0.00 | 67 | 1018.2 |